createdAt,value
2017-10-04T00:01:34.722Z,94.90
2017-10-04T00:04:02.219Z,95.20
2017-10-04T00:06:32.290Z,95.70
2017-10-04T00:08:59.773Z,95.70
2017-10-04T00:11:29.644Z,96.10
2017-10-04T00:13:57.683Z,96.10
2017-10-04T00:16:27.131Z,96.20
2017-10-04T00:18:54.617Z,96.30
2017-10-04T00:21:22.491Z,96.40
2017-10-04T00:23:50.389Z,96.20
2017-10-04T00:26:17.862Z,96.20
2017-10-04T00:28:45.358Z,96.30
2017-10-04T00:31:13.231Z,96.40
2017-10-04T00:33:41.099Z,96.20
2017-10-04T00:36:08.989Z,96.20
2017-10-04T00:38:36.470Z,96.20
2017-10-04T00:41:03.961Z,96.20
2017-10-04T00:43:32.379Z,96.10
2017-10-04T00:45:59.871Z,96.10
2017-10-04T00:48:27.354Z,96.00
2017-10-04T00:50:54.830Z,96.30
2017-10-04T00:53:23.106Z,96.50
2017-10-04T00:55:50.980Z,96.50
2017-10-04T00:58:18.514Z,96.50
2017-10-04T01:00:46.002Z,96.50
2017-10-04T01:03:13.473Z,96.30
2017-10-04T01:05:40.978Z,96.20
2017-10-04T01:08:08.460Z,96.20
2017-10-04T01:10:36.317Z,96.20
2017-10-04T01:13:04.211Z,96.20
2017-10-04T01:15:31.706Z,96.20
2017-10-04T01:17:59.205Z,96.20
2017-10-04T01:20:26.680Z,96.30
2017-10-04T01:22:54.169Z,96.40
2017-10-04T01:25:21.685Z,96.50
2017-10-04T01:27:49.174Z,96.50
2017-10-04T01:30:16.685Z,96.60
2017-10-04T01:32:44.557Z,96.80
2017-10-04T01:35:13.490Z,96.90
2017-10-04T01:37:40.965Z,96.90
2017-10-04T01:40:08.462Z,96.90
2017-10-04T01:42:36.342Z,96.80
2017-10-04T01:45:03.834Z,96.80
2017-10-04T01:47:31.302Z,96.80
2017-10-04T01:49:58.794Z,96.80
2017-10-04T01:52:28.606Z,97.20
2017-10-04T01:54:57.425Z,97.30
2017-10-04T01:57:24.919Z,97.30
2017-10-04T01:59:52.397Z,97.40
2017-10-04T02:02:19.888Z,97.60
2017-10-04T02:04:47.356Z,97.60
2017-10-04T02:07:14.850Z,97.80
2017-10-04T02:09:42.330Z,97.90
2017-10-04T02:12:10.232Z,98.00
2017-10-04T02:14:37.713Z,98.00
2017-10-04T02:17:05.233Z,97.80
2017-10-04T02:19:32.730Z,97.70
2017-10-04T02:22:00.260Z,97.60
2017-10-04T02:24:27.773Z,97.40
2017-10-04T02:26:55.274Z,97.20
2017-10-04T02:29:25.406Z,97.30
2017-10-04T02:31:54.879Z,97.30
2017-10-04T02:34:22.746Z,97.20
2017-10-04T02:36:50.234Z,97.20
2017-10-04T02:39:17.767Z,97.30
2017-10-04T02:41:45.240Z,97.50
2017-10-04T02:44:12.730Z,97.50
2017-10-04T02:46:40.215Z,97.20
2017-10-04T02:49:08.100Z,97.40
2017-10-04T02:51:35.576Z,97.40
2017-10-04T02:54:03.071Z,97.50
2017-10-04T02:56:30.555Z,97.50
2017-10-04T02:59:00.434Z,97.40
2017-10-04T03:01:27.901Z,97.40
2017-10-04T03:03:55.381Z,97.70
2017-10-04T03:06:23.253Z,97.60
2017-10-04T03:08:51.133Z,97.50
2017-10-04T03:11:18.605Z,97.60
2017-10-04T03:13:46.098Z,97.60
2017-10-04T03:16:13.582Z,97.50
2017-10-04T03:18:41.479Z,97.40
2017-10-04T03:21:08.953Z,97.40
2017-10-04T03:23:36.437Z,97.40
2017-10-04T03:26:03.914Z,97.50
2017-10-04T03:28:31.401Z,97.50
2017-10-04T03:30:58.867Z,97.60
2017-10-04T03:33:26.351Z,97.60
2017-10-04T03:35:53.850Z,97.70
2017-10-04T03:38:21.714Z,97.60
2017-10-04T03:40:49.610Z,97.60
2017-10-04T03:43:17.092Z,97.60
2017-10-04T03:45:44.586Z,97.60
2017-10-04T03:48:12.059Z,97.70
2017-10-04T03:50:39.958Z,97.90
2017-10-04T03:53:07.432Z,97.90
2017-10-04T03:55:34.974Z,98.00
2017-10-04T03:58:03.394Z,98.00
2017-10-04T04:00:30.890Z,98.00
2017-10-04T04:02:58.365Z,98.00
2017-10-04T04:05:27.790Z,98.10
2017-10-04T04:07:55.266Z,98.20
2017-10-04T04:10:22.766Z,98.30
2017-10-04T04:12:51.254Z,98.60
2017-10-04T04:15:18.759Z,98.80
2017-10-04T04:17:46.225Z,98.80
2017-10-04T04:20:13.718Z,98.90
2017-10-04T04:22:41.194Z,98.80
2017-10-04T04:25:08.700Z,98.60
2017-10-04T04:27:36.180Z,98.50
2017-10-04T04:30:03.669Z,98.50
2017-10-04T04:32:31.169Z,98.50
2017-10-04T04:34:59.622Z,98.30
2017-10-04T04:37:27.107Z,98.30
2017-10-04T04:39:54.581Z,98.30
2017-10-04T04:42:22.476Z,98.50
2017-10-04T04:44:49.966Z,98.50
2017-10-04T04:47:17.453Z,98.60
2017-10-04T04:49:45.328Z,98.70
2017-10-04T04:52:12.834Z,98.70
2017-10-04T04:54:40.316Z,98.80
2017-10-04T04:57:07.819Z,98.90
2017-10-04T04:59:36.294Z,99.00
2017-10-04T05:02:03.803Z,98.90
2017-10-04T05:04:31.288Z,98.80
2017-10-04T05:06:59.194Z,98.80
2017-10-04T05:09:26.666Z,98.80
2017-10-04T05:11:54.201Z,98.70
2017-10-04T05:14:21.713Z,98.60
2017-10-04T05:16:49.226Z,98.70
2017-10-04T05:19:16.711Z,98.70
2017-10-04T05:21:44.214Z,98.70
2017-10-04T05:24:12.629Z,98.80
2017-10-04T05:26:40.155Z,98.70
2017-10-04T05:29:07.639Z,98.60
2017-10-04T05:31:35.155Z,98.80
2017-10-04T05:34:03.026Z,98.80
2017-10-04T05:36:30.542Z,98.80
2017-10-04T05:38:58.030Z,98.90
2017-10-04T05:41:25.930Z,99.10
2017-10-04T05:43:53.409Z,99.10
2017-10-04T05:46:20.916Z,99.10
2017-10-04T05:48:49.746Z,99.10
2017-10-04T05:51:17.252Z,99.10
2017-10-04T05:53:45.138Z,99.00
2017-10-04T05:56:12.680Z,99.00
2017-10-04T05:58:40.561Z,98.80
2017-10-04T06:01:08.427Z,98.90
2017-10-04T06:03:36.342Z,98.80
2017-10-04T06:06:03.829Z,98.90
2017-10-04T06:08:31.361Z,98.90
2017-10-04T06:10:58.845Z,98.90
2017-10-04T06:13:27.142Z,98.70
2017-10-04T06:15:54.623Z,98.60
2017-10-04T06:18:22.118Z,98.60
2017-10-04T06:20:49.608Z,98.60
2017-10-04T06:23:17.490Z,98.60
2017-10-04T06:25:44.961Z,98.60
2017-10-04T06:28:12.493Z,98.50
2017-10-04T06:30:42.326Z,98.10
2017-10-04T06:33:09.803Z,98.10
2017-10-04T06:35:37.302Z,98.20
2017-10-04T06:38:05.183Z,97.70
2017-10-04T06:40:32.693Z,97.70
2017-10-04T06:43:00.182Z,97.40
2017-10-04T06:45:27.682Z,97.40
2017-10-04T06:47:55.174Z,97.70
2017-10-04T06:50:22.652Z,97.40
2017-10-04T06:52:50.558Z,96.80
2017-10-04T06:55:18.033Z,96.80
2017-10-04T06:57:45.527Z,96.50
2017-10-04T07:00:13.092Z,96.70
2017-10-04T07:02:41.673Z,96.60
2017-10-04T07:05:09.174Z,96.70
2017-10-04T07:07:36.673Z,97.00
2017-10-04T07:10:04.157Z,96.90
2017-10-04T07:15:07.072Z,96.80
2017-10-04T07:17:34.565Z,96.70
2017-10-04T07:20:02.045Z,96.60
2017-10-04T07:22:31.519Z,96.60
2017-10-04T07:24:59.025Z,96.80
2017-10-04T07:27:26.942Z,96.90
2017-10-04T07:29:54.437Z,96.90
2017-10-04T07:32:21.954Z,96.70
2017-10-04T07:34:49.530Z,96.90
2017-10-04T07:37:19.015Z,96.80
2017-10-04T07:39:46.535Z,96.90
2017-10-04T07:42:16.254Z,95.60
2017-10-04T07:44:44.143Z,95.70
2017-10-04T07:47:11.635Z,95.80
2017-10-04T07:49:40.215Z,95.20
2017-10-04T07:52:07.721Z,95.40
2017-10-04T07:54:36.235Z,94.50
2017-10-04T07:57:03.763Z,94.00
2017-10-04T07:59:31.255Z,93.50
2017-10-04T08:02:00.062Z,93.20
2017-10-04T08:04:27.568Z,93.80
2017-10-04T08:06:55.062Z,93.20
2017-10-04T08:09:23.420Z,93.30
2017-10-04T08:11:50.941Z,94.00
2017-10-04T08:14:18.853Z,93.70
2017-10-04T08:16:46.352Z,93.70
2017-10-04T08:19:15.830Z,93.20
2017-10-04T08:21:43.333Z,93.00
2017-10-04T08:24:10.826Z,92.90
2017-10-04T08:26:38.323Z,93.00
2017-10-04T08:29:05.848Z,92.70
2017-10-04T08:31:33.427Z,92.50
2017-10-04T08:36:35.790Z,92.00
2017-10-04T08:39:03.360Z,92.50
2017-10-04T08:41:32.829Z,92.60
2017-10-04T08:44:00.329Z,92.30
2017-10-04T08:46:27.817Z,92.40
2017-10-04T08:48:55.705Z,92.30
2017-10-04T08:51:25.157Z,92.30
2017-10-04T08:53:52.660Z,92.40
2017-10-04T08:56:20.142Z,92.10
2017-10-04T08:58:47.661Z,92.20
2017-10-04T09:01:15.542Z,91.80
2017-10-04T09:03:43.977Z,91.80
2017-10-04T09:06:13.418Z,91.90
2017-10-04T09:08:41.294Z,91.70
2017-10-04T09:11:08.806Z,91.70
2017-10-04T09:13:36.333Z,91.00
2017-10-04T09:16:03.837Z,91.70
2017-10-04T09:18:31.745Z,90.90
2017-10-04T09:20:59.250Z,90.90
2017-10-04T09:23:26.739Z,91.00
2017-10-04T09:25:54.250Z,90.30
2017-10-04T09:28:21.742Z,90.00
2017-10-04T09:30:49.686Z,89.10
2017-10-04T09:33:17.224Z,89.10
2017-10-04T09:35:44.730Z,87.40
2017-10-04T09:38:12.646Z,87.40
2017-10-04T09:40:40.164Z,87.40
2017-10-04T09:43:07.654Z,86.40
2017-10-04T09:45:37.094Z,86.80
2017-10-04T09:48:04.589Z,87.70
2017-10-04T09:50:32.109Z,85.70
2017-10-04T09:53:01.542Z,85.70
2017-10-04T09:55:29.031Z,85.00
2017-10-04T09:57:56.541Z,83.80
2017-10-04T10:00:24.435Z,83.80
2017-10-04T10:02:51.950Z,83.80
2017-10-04T10:05:19.566Z,84.20
2017-10-04T10:07:47.070Z,84.00
2017-10-04T10:10:15.518Z,84.60
2017-10-04T10:12:45.552Z,85.40
2017-10-04T10:15:12.314Z,84.70
2017-10-04T10:17:40.226Z,85.60
2017-10-04T10:20:08.691Z,85.60
2017-10-04T10:22:36.252Z,85.50
2017-10-04T10:25:03.742Z,85.10
2017-10-04T10:27:31.239Z,84.80
2017-10-04T10:29:59.143Z,85.30
2017-10-04T10:32:26.667Z,85.30
2017-10-04T10:34:54.566Z,85.40
2017-10-04T10:37:22.097Z,85.40
2017-10-04T10:39:49.974Z,85.40
2017-10-04T10:42:17.475Z,85.40
2017-10-04T10:44:44.967Z,85.10
2017-10-04T10:47:12.878Z,84.70
2017-10-04T10:49:40.369Z,84.70
2017-10-04T10:52:07.867Z,83.90
2017-10-04T10:54:35.761Z,83.30
2017-10-04T10:57:03.271Z,83.30
2017-10-04T10:59:31.182Z,83.80
2017-10-04T11:01:58.699Z,83.70
2017-10-04T11:04:26.591Z,83.40
2017-10-04T11:06:54.122Z,83.40
2017-10-04T11:09:22.023Z,82.40
2017-10-04T11:11:49.546Z,82.40
2017-10-04T11:14:17.452Z,81.70
2017-10-04T11:16:44.934Z,81.70
2017-10-04T11:19:14.375Z,81.80
2017-10-04T11:21:42.286Z,80.80
2017-10-04T11:24:09.763Z,80.80
2017-10-04T11:26:37.274Z,81.10
2017-10-04T11:29:04.769Z,81.00
2017-10-04T11:31:32.274Z,80.50
2017-10-04T11:34:00.164Z,81.40
2017-10-04T11:36:29.621Z,81.40
2017-10-04T11:38:57.128Z,80.10
2017-10-04T11:41:24.854Z,80.40
2017-10-04T11:43:52.752Z,81.10
2017-10-04T11:46:20.248Z,81.10
2017-10-04T11:48:47.777Z,80.60
2017-10-04T11:51:15.306Z,80.50
2017-10-04T11:53:44.158Z,80.10
2017-10-04T11:56:12.598Z,80.10
2017-10-04T11:58:40.090Z,80.90
2017-10-04T12:01:07.594Z,79.50
2017-10-04T12:03:35.490Z,79.50
2017-10-04T12:06:02.998Z,79.50
2017-10-04T12:08:30.478Z,79.80
2017-10-04T12:10:58.368Z,79.70
2017-10-04T12:13:25.864Z,79.70
2017-10-04T12:15:53.370Z,80.60
2017-10-04T12:18:20.871Z,79.70
2017-10-04T12:20:48.361Z,79.90
2017-10-04T12:23:16.239Z,80.40
2017-10-04T12:25:43.742Z,80.40
2017-10-04T12:28:11.253Z,81.00
2017-10-04T12:30:39.166Z,79.60
2017-10-04T12:33:06.650Z,79.60
2017-10-04T12:35:34.142Z,79.00
2017-10-04T12:38:01.675Z,79.10
2017-10-04T12:40:29.186Z,79.40
2017-10-04T12:42:56.669Z,79.80
2017-10-04T12:45:24.158Z,79.00
2017-10-04T12:47:52.995Z,78.80
2017-10-04T12:50:21.390Z,78.80
2017-10-04T12:52:48.895Z,78.30
2017-10-04T12:55:16.408Z,78.60
2017-10-04T12:57:43.899Z,78.50
2017-10-04T13:00:11.788Z,78.40
2017-10-04T13:02:39.275Z,78.40
2017-10-04T13:05:06.785Z,77.90
2017-10-04T13:07:34.662Z,77.40
2017-10-04T13:10:02.168Z,77.40
2017-10-04T13:12:30.622Z,78.80
2017-10-04T13:14:58.138Z,77.70
2017-10-04T13:17:26.014Z,78.70
2017-10-04T13:19:53.523Z,78.70
2017-10-04T13:22:21.049Z,77.50
2017-10-04T13:24:48.556Z,77.80
2017-10-04T13:27:16.984Z,77.00
2017-10-04T13:29:45.391Z,76.80
2017-10-04T13:32:12.869Z,76.10
2017-10-04T13:34:41.338Z,76.50
2017-10-04T13:37:08.814Z,77.20
2017-10-04T13:39:36.346Z,77.50
2017-10-04T13:42:04.772Z,76.70
2017-10-04T13:44:32.274Z,77.30
2017-10-04T13:46:59.768Z,77.20
2017-10-04T13:49:28.191Z,76.90
2017-10-04T13:51:55.674Z,76.30
2017-10-04T13:54:23.177Z,76.20
2017-10-04T13:56:51.072Z,76.50
2017-10-04T13:59:18.571Z,76.50
2017-10-04T14:01:46.090Z,76.70
2017-10-04T14:04:13.561Z,77.10
2017-10-04T14:06:41.100Z,76.10
2017-10-04T14:09:08.628Z,76.40
2017-10-04T14:11:36.546Z,76.70
2017-10-04T14:14:04.096Z,76.70
2017-10-04T14:16:31.642Z,76.90
2017-10-04T14:18:59.131Z,76.80
2017-10-04T14:21:28.558Z,77.00
2017-10-04T14:23:56.048Z,77.90
2017-10-04T14:26:23.582Z,76.70
2017-10-04T14:28:51.460Z,77.50
2017-10-04T14:31:19.360Z,77.50
2017-10-04T14:33:46.843Z,77.50
2017-10-04T14:36:14.346Z,77.50
2017-10-04T14:38:41.868Z,77.10
2017-10-04T14:43:43.418Z,77.50
2017-10-04T14:46:11.033Z,77.00
2017-10-04T14:48:38.531Z,77.80
2017-10-04T14:51:06.042Z,78.00
2017-10-04T14:53:33.942Z,78.00
2017-10-04T14:56:01.439Z,78.00
2017-10-04T14:58:28.935Z,77.40
2017-10-04T15:00:58.424Z,77.70
2017-10-04T15:03:26.315Z,77.80
2017-10-04T15:05:53.839Z,77.80
2017-10-04T15:08:21.737Z,77.60
2017-10-04T15:10:49.287Z,77.60
2017-10-04T15:13:16.837Z,78.00
2017-10-04T15:15:44.753Z,78.10
2017-10-04T15:18:12.275Z,78.10
2017-10-04T15:20:39.820Z,78.20
2017-10-04T15:23:07.690Z,78.30
2017-10-04T15:25:35.220Z,78.30
2017-10-04T15:28:02.703Z,78.50
2017-10-04T15:30:30.579Z,78.50
2017-10-04T15:32:58.077Z,78.50
2017-10-04T15:35:25.573Z,78.20
2017-10-04T15:37:53.504Z,78.90
2017-10-04T15:40:21.014Z,78.90
2017-10-04T15:42:48.562Z,78.70
2017-10-04T15:45:16.455Z,79.30
2017-10-04T15:47:44.005Z,79.30
2017-10-04T15:50:11.586Z,78.80
2017-10-04T15:52:39.087Z,79.20
2017-10-04T15:55:07.905Z,79.40
2017-10-04T15:57:35.422Z,79.40
2017-10-04T16:00:02.914Z,80.50
2017-10-04T16:02:30.814Z,80.60
2017-10-04T16:04:58.304Z,80.60
2017-10-04T16:07:25.818Z,79.90
2017-10-04T16:09:53.301Z,80.20
2017-10-04T16:12:20.801Z,80.50
2017-10-04T16:14:48.696Z,80.30
2017-10-04T16:17:16.181Z,80.30
2017-10-04T16:19:44.619Z,80.10
2017-10-04T16:22:12.151Z,80.00
2017-10-04T16:24:40.047Z,80.20
2017-10-04T16:27:07.534Z,80.20
2017-10-04T16:29:35.043Z,79.90
2017-10-04T16:32:02.559Z,79.70
2017-10-04T16:34:30.062Z,80.00
2017-10-04T16:36:57.552Z,80.20
2017-10-04T16:39:25.082Z,79.80
2017-10-04T16:41:52.578Z,80.20
2017-10-04T16:44:20.088Z,80.00
2017-10-04T16:46:47.590Z,80.60
2017-10-04T16:49:15.786Z,80.30
2017-10-04T16:51:43.287Z,80.60
2017-10-04T16:54:10.790Z,80.40
2017-10-04T16:56:38.323Z,80.80
2017-10-04T16:59:05.835Z,80.40
2017-10-04T17:01:33.782Z,81.50
2017-10-04T17:04:01.310Z,81.50
2017-10-04T17:06:28.915Z,81.00
2017-10-04T17:08:57.780Z,81.10
2017-10-04T17:11:27.437Z,81.10
2017-10-04T17:13:59.028Z,81.70
2017-10-04T17:16:27.624Z,80.90
2017-10-04T17:19:02.171Z,81.00
2017-10-04T17:21:30.661Z,81.00
2017-10-04T17:23:58.620Z,81.20
2017-10-04T17:26:26.532Z,80.90
2017-10-04T17:28:54.062Z,80.90
2017-10-04T17:31:22.076Z,81.30
2017-10-04T17:33:49.603Z,81.30
2017-10-04T17:36:17.806Z,81.10
2017-10-04T17:38:45.479Z,81.30
2017-10-04T17:41:13.107Z,81.50
2017-10-04T17:43:43.057Z,81.40
2017-10-04T17:46:10.575Z,82.30
2017-10-04T17:48:39.739Z,81.90
2017-10-04T17:51:07.232Z,82.80
2017-10-04T17:53:34.769Z,81.90
2017-10-04T17:56:03.759Z,82.10
2017-10-04T17:58:31.761Z,82.40
2017-10-04T18:00:59.408Z,82.40
2017-10-04T18:03:28.493Z,82.30
2017-10-04T18:05:57.604Z,82.30
2017-10-04T18:08:29.166Z,83.00
2017-10-04T18:10:57.282Z,82.80
2017-10-04T18:13:24.785Z,82.80
2017-10-04T18:15:52.307Z,83.40
2017-10-04T18:18:20.189Z,82.90
2017-10-04T18:20:48.086Z,83.50
2017-10-04T18:23:15.574Z,83.50
2017-10-04T18:25:43.982Z,83.50
2017-10-04T18:28:11.918Z,83.30
2017-10-04T18:30:39.433Z,83.30
2017-10-04T18:33:06.951Z,83.60
2017-10-04T18:35:34.438Z,83.60
2017-10-04T18:38:01.944Z,83.70
2017-10-04T18:40:29.473Z,83.60
2017-10-04T18:42:57.070Z,83.60
2017-10-04T18:45:24.654Z,84.00
2017-10-04T18:47:54.952Z,84.10
2017-10-04T18:50:22.555Z,83.70
2017-10-04T18:55:24.983Z,84.30
2017-10-04T18:57:54.228Z,84.10
2017-10-04T19:00:23.746Z,84.00
2017-10-04T19:02:51.369Z,83.90
2017-10-04T19:05:19.557Z,84.60
2017-10-04T19:07:47.618Z,84.40
2017-10-04T19:24:05.414Z,84.10
2017-10-04T19:26:36.382Z,84.30
2017-10-04T19:29:14.924Z,84.10
2017-10-04T19:31:58.384Z,84.10
2017-10-04T19:35:04.791Z,84.20
2017-10-04T19:37:32.421Z,84.30
2017-10-04T19:44:54.628Z,84.30
2017-10-04T19:47:22.536Z,84.50
2017-10-04T19:49:54.839Z,84.60
2017-10-04T20:06:26.600Z,85.20
2017-10-04T20:11:49.665Z,85.30
2017-10-04T20:14:19.440Z,85.20
2017-10-04T20:16:51.250Z,85.20
2017-10-04T20:19:22.591Z,85.20
2017-10-04T20:21:55.553Z,85.40
2017-10-04T20:24:23.226Z,85.40
2017-10-04T20:29:59.551Z,85.20
2017-10-04T20:32:37.022Z,85.10
2017-10-04T20:38:11.511Z,85.30
2017-10-04T20:48:49.534Z,85.30
2017-10-04T20:51:29.268Z,85.80
2017-10-04T20:56:51.478Z,86.20
2017-10-04T20:59:21.372Z,86.30
2017-10-04T21:01:50.057Z,86.20
2017-10-04T21:04:27.431Z,86.10
2017-10-04T21:07:15.973Z,86.10
2017-10-04T21:09:51.192Z,86.40
2017-10-04T21:12:22.420Z,86.50
2017-10-04T21:14:57.887Z,86.50
2017-10-04T21:17:30.362Z,86.90
2017-10-04T21:20:00.451Z,86.70
2017-10-04T21:22:28.925Z,86.70
2017-10-04T21:24:58.108Z,86.70
2017-10-04T21:27:28.532Z,86.90
2017-10-04T21:29:59.448Z,87.10
2017-10-04T21:37:13.809Z,87.30
2017-10-04T21:40:01.583Z,87.30
2017-10-04T21:42:30.176Z,87.50
2017-10-04T21:44:59.482Z,87.40
2017-10-04T21:47:43.745Z,87.30
2017-10-04T21:50:14.871Z,87.40
2017-10-04T21:52:51.825Z,87.70
2017-10-04T21:55:33.595Z,87.20
2017-10-04T21:58:05.027Z,87.10
2017-10-04T22:00:32.632Z,87.10
2017-10-04T22:03:00.170Z,87.10
2017-10-04T22:05:27.730Z,87.40
2017-10-04T22:07:55.821Z,87.20
2017-10-04T22:10:28.300Z,87.10
2017-10-04T22:12:56.047Z,87.40
2017-10-04T22:15:23.624Z,87.20
2017-10-04T22:17:51.154Z,87.30
2017-10-04T22:20:20.601Z,87.60
2017-10-04T22:22:48.204Z,87.40
2017-10-04T22:25:17.034Z,87.60
2017-10-04T22:27:44.607Z,87.60
2017-10-04T22:30:13.182Z,87.40
2017-10-04T22:32:41.756Z,87.40
2017-10-04T22:35:11.803Z,87.40
2017-10-04T22:37:48.502Z,87.30
2017-10-04T22:40:18.901Z,87.30
2017-10-04T22:45:22.374Z,87.10
2017-10-04T22:47:54.818Z,87.40
2017-10-04T22:50:22.439Z,87.10
2017-10-04T22:52:51.751Z,87.20
2017-10-04T22:55:21.474Z,87.00
2017-10-04T22:57:51.134Z,87.20
2017-10-04T23:00:19.678Z,87.20
2017-10-04T23:02:50.116Z,87.10
2017-10-04T23:05:17.721Z,87.00
2017-10-04T23:07:45.264Z,87.10
2017-10-04T23:10:12.818Z,87.40
2017-10-04T23:12:41.115Z,87.20
2017-10-04T23:15:08.979Z,87.50
2017-10-04T23:17:39.425Z,87.50
2017-10-04T23:20:08.294Z,87.00
2017-10-04T23:22:35.957Z,87.00
2017-10-04T23:25:08.301Z,87.50
2017-10-04T23:27:38.593Z,87.40
2017-10-04T23:30:10.101Z,87.40
2017-10-04T23:32:38.901Z,87.60
2017-10-04T23:35:06.875Z,87.70
2017-10-04T23:37:35.985Z,87.70
2017-10-04T23:40:06.434Z,87.60
2017-10-04T23:42:34.067Z,87.60
2017-10-04T23:45:04.125Z,87.70
2017-10-04T23:47:32.125Z,88.00
2017-10-04T23:50:02.222Z,87.80
2017-10-04T23:52:30.807Z,88.00
2017-10-04T23:54:58.387Z,88.10
2017-10-04T23:57:26.789Z,88.10
2017-10-04T23:59:56.964Z,87.90
